Time;durP1;ratioP1;P1;durP2;ratioP2;P2;SDS_P1;SDS_P2;PMS_P1;PMS_P2;Temp;Humidity;BMP_temperature;BMP_pressure;BME280_temperature;BME280_humidity;BME280_pressure;Samples;Min_cycle;Max_cycle;Signal;HPM_P1;HPM_P2
2023/03/19 00:01:05;;;;;;;4.07;3.03;;;17.90;58.00;19.20;100352.00;;;;5012257;28;20259;-43
2023/03/19 00:03:31;;;;;;;3.97;3.40;;;17.90;57.90;19.10;100358.00;;;;5012309;28;20585;-43
2023/03/19 00:05:57;;;;;;;3.53;3.20;;;17.90;57.90;19.10;100349.00;;;;5014467;28;20179;-44
2023/03/19 00:08:23;;;;;;;4.93;3.10;;;17.90;58.00;19.10;100358.00;;;;5016672;28;20215;-44
2023/03/19 00:10:49;;;;;;;3.70;3.30;;;17.90;58.10;19.10;100363.00;;;;5017164;28;20172;-43
2023/03/19 00:13:14;;;;;;;4.07;3.30;;;17.90;58.10;19.10;100362.00;;;;5013595;28;20191;-42
2023/03/19 00:15:40;;;;;;;3.67;3.20;;;17.80;58.10;19.10;100363.00;;;;5012758;28;20234;-43
2023/03/19 00:18:07;;;;;;;4.47;3.30;;;17.80;58.20;19.10;100369.00;;;;5011962;28;20175;-43
2023/03/19 00:20:33;;;;;;;5.27;3.10;;;17.80;58.20;19.10;100355.00;;;;5012177;28;20168;-43
2023/03/19 00:22:59;;;;;;;3.73;3.43;;;17.80;58.20;19.10;100368.00;;;;5012048;28;20176;-43
2023/03/19 00:25:25;;;;;;;3.60;3.30;;;17.80;58.30;19.00;100352.00;;;;5012075;28;20187;-44
2023/03/19 00:27:53;;;;;;;3.40;3.10;;;17.80;58.30;19.00;100354.00;;;;5011922;28;20223;-43
2023/03/19 00:30:20;;;;;;;4.57;3.50;;;17.80;58.40;19.00;100353.00;;;;5011605;28;20337;-44
2023/03/19 00:32:46;;;;;;;3.53;3.17;;;17.80;58.40;19.00;100356.00;;;;5010359;28;20175;-43
2023/03/19 00:35:12;;;;;;;3.63;3.33;;;17.80;58.50;19.00;100353.00;;;;5010452;28;20238;-44
2023/03/19 00:37:39;;;;;;;4.40;3.40;;;17.80;58.50;19.00;100347.00;;;;5010955;28;20211;-43
2023/03/19 00:40:06;;;;;;;3.70;3.30;;;17.80;58.50;19.00;100349.00;;;;5010293;28;20203;-43
2023/03/19 00:42:32;;;;;;;3.87;3.10;;;17.70;58.50;19.00;100354.00;;;;5010396;28;20167;-43
2023/03/19 00:44:57;;;;;;;3.73;3.30;;;17.70;58.40;19.00;100357.00;;;;5010324;28;20673;-43
2023/03/19 00:47:23;;;;;;;3.63;3.33;;;17.70;58.40;19.00;100337.00;;;;5009858;28;20185;-43
2023/03/19 00:49:49;;;;;;;4.53;3.27;;;17.70;58.50;18.90;100349.00;;;;5009973;28;20250;-43
2023/03/19 00:52:15;;;;;;;3.87;3.30;;;17.70;58.50;18.90;100359.00;;;;5009858;28;20180;-43
2023/03/19 00:54:41;;;;;;;3.70;3.40;;;17.70;58.50;18.90;100352.00;;;;5010182;28;20182;-43
2023/03/19 00:57:07;;;;;;;5.03;3.30;;;17.70;58.50;18.90;100295.00;;;;5010008;28;20275;-43
2023/03/19 00:59:33;;;;;;;3.93;3.10;;;17.70;58.50;18.90;100360.00;;;;5009783;28;20191;-43
2023/03/19 01:01:58;;;;;;;4.10;3.30;;;17.70;58.60;18.90;100370.00;;;;5009837;28;20206;-44
2023/03/19 01:04:24;;;;;;;3.80;3.30;;;17.70;58.60;18.90;100366.00;;;;5009852;28;20175;-44
2023/03/19 01:06:50;;;;;;;3.43;3.13;;;17.60;58.60;18.90;100372.00;;;;5009951;28;20249;-44
2023/03/19 01:09:16;;;;;;;3.60;3.20;;;17.60;59.20;18.80;100365.00;;;;5009632;28;20259;-43
2023/03/19 01:11:41;;;;;;;3.93;3.23;;;17.60;58.50;18.80;100355.00;;;;5009614;28;20251;-43
2023/03/19 01:14:07;;;;;;;3.80;3.40;;;17.60;58.60;18.80;100358.00;;;;5009776;28;20226;-44
2023/03/19 01:16:33;;;;;;;4.07;3.40;;;17.60;58.50;18.80;100354.00;;;;5009605;28;20257;-44
2023/03/19 01:19:03;;;;;;;3.83;3.30;;;17.60;58.50;18.80;100345.00;;;;5009580;28;20195;-44
2023/03/19 01:21:29;;;;;;;3.80;3.40;;;17.60;58.60;18.80;100354.00;;;;5009401;28;20674;-44
2023/03/19 01:23:56;;;;;;;4.00;3.50;;;17.50;58.50;18.80;100360.00;;;;5009334;28;20217;-43
2023/03/19 01:26:22;;;;;;;3.60;3.30;;;17.60;58.60;18.80;100355.00;;;;5009347;28;20183;-43
2023/03/19 01:28:48;;;;;;;3.87;3.57;;;17.50;58.40;18.80;100357.00;;;;5010117;28;20203;-43
2023/03/19 01:31:14;;;;;;;3.70;3.40;;;17.50;58.40;18.80;100358.00;;;;5009682;28;20186;-43
2023/03/19 01:33:40;;;;;;;4.13;3.70;;;17.50;58.50;18.70;100351.00;;;;5009708;28;20670;-44
2023/03/19 01:36:07;;;;;;;5.10;4.13;;;17.50;58.50;18.70;100358.00;;;;5009702;28;20198;-44
2023/03/19 01:38:32;;;;;;;4.07;3.67;;;17.50;58.30;18.70;100354.00;;;;5009463;28;20206;-44
2023/03/19 01:40:58;;;;;;;5.17;3.90;;;17.40;58.30;18.60;100355.00;;;;5009281;28;20266;-43
2023/03/19 01:43:26;;;;;;;4.73;3.60;;;17.40;58.30;18.60;100351.00;;;;5009076;28;20710;-43
2023/03/19 01:45:57;;;;;;;4.20;3.80;;;17.40;58.30;18.60;100342.00;;;;5009109;28;20237;-43
2023/03/19 01:48:31;;;;;;;6.63;3.60;;;17.30;58.30;18.50;100353.00;;;;5007783;28;20267;-44
2023/03/19 01:50:57;;;;;;;4.23;3.83;;;17.30;58.30;18.50;100339.00;;;;5007755;28;20658;-44
2023/03/19 01:53:26;;;;;;;4.87;3.70;;;17.30;58.30;18.50;100335.00;;;;5007627;28;20219;-43
2023/03/19 01:55:56;;;;;;;4.23;3.60;;;17.40;58.30;18.50;100340.00;;;;5007881;28;20715;-43
2023/03/19 01:58:21;;;;;;;4.67;3.70;;;17.30;58.10;18.50;100347.00;;;;5008730;28;20261;-43
2023/03/19 02:00:47;;;;;;;4.30;3.40;;;17.20;58.10;18.40;100348.00;;;;5007730;28;20268;-43
2023/03/19 02:03:13;;;;;;;4.20;3.47;;;17.20;58.00;18.40;100344.00;;;;5008813;28;20194;-43
2023/03/19 02:05:39;;;;;;;4.63;3.50;;;17.20;58.00;18.40;100347.00;;;;5008985;28;20638;-45
2023/03/19 02:08:06;;;;;;;4.90;3.30;;;17.20;58.00;18.40;100339.00;;;;5007576;28;20270;-44
2023/03/19 02:10:32;;;;;;;3.70;3.20;;;17.20;58.00;18.40;100340.00;;;;5007521;28;20182;-44
2023/03/19 02:12:57;;;;;;;3.87;3.30;;;17.20;57.90;18.40;100333.00;;;;5007449;28;20176;-43
2023/03/19 02:15:23;;;;;;;4.17;3.07;;;17.20;58.00;18.40;100339.00;;;;5008537;28;20317;-44
2023/03/19 02:17:49;;;;;;;3.07;2.67;;;17.20;57.70;18.40;100337.00;;;;5008698;28;20603;-43
2023/03/19 02:20:20;;;;;;;4.13;3.20;;;17.20;57.60;18.30;100330.00;;;;5008605;28;20206;-43
2023/03/19 02:23:10;;;;;;;3.30;2.87;;;17.20;57.70;18.30;100341.00;;;;5007566;28;20172;-43
2023/03/19 02:25:45;;;;;;;3.53;2.87;;;17.10;57.50;18.30;100350.00;;;;5007490;28;20185;-43
2023/03/19 02:28:12;;;;;;;3.60;3.00;;;17.10;57.40;18.20;100344.00;;;;5008388;28;20192;-44
2023/03/19 02:30:37;;;;;;;4.67;2.90;;;17.10;57.50;18.20;100345.00;;;;5007278;28;20186;-43
2023/03/19 02:33:03;;;;;;;2.90;2.60;;;17.10;57.50;18.20;100346.00;;;;5008579;28;20185;-44
2023/03/19 02:35:31;;;;;;;4.33;3.23;;;17.00;57.50;18.20;100338.00;;;;5008732;28;20203;-45
2023/03/19 02:37:57;;;;;;;3.77;2.80;;;17.00;57.60;18.10;100348.00;;;;5007553;28;20176;-43
2023/03/19 02:40:26;;;;;;;3.37;2.87;;;17.00;57.50;18.10;100340.00;;;;5008498;28;20678;-43
2023/03/19 02:42:51;;;;;;;3.10;2.80;;;17.00;57.60;18.10;100336.00;;;;5007154;28;20548;-44
2023/03/19 02:45:17;;;;;;;3.33;2.70;;;17.00;57.50;18.10;100339.00;;;;5008968;28;20207;-43
2023/03/19 02:47:43;;;;;;;6.33;2.97;;;17.00;57.60;18.10;100333.00;;;;5008900;28;20183;-43
2023/03/19 02:50:09;;;;;;;2.97;2.67;;;16.90;57.60;18.10;100341.00;;;;5009086;28;20212;-43
2023/03/19 02:52:35;;;;;;;3.00;2.70;;;16.90;57.60;18.10;100342.00;;;;5008639;28;20298;-43
2023/03/19 02:55:01;;;;;;;3.20;2.53;;;16.90;57.70;18.10;100346.00;;;;5008276;28;20556;-43
2023/03/19 02:57:27;;;;;;;2.83;2.60;;;16.90;58.30;18.00;100352.00;;;;5008130;28;20189;-44
2023/03/19 02:59:52;;;;;;;2.83;2.63;;;16.90;57.70;18.00;100354.00;;;;5007899;28;20233;-43
2023/03/19 03:02:18;;;;;;;3.10;2.80;;;16.80;57.70;18.00;100354.00;;;;5008018;28;20284;-42
2023/03/19 03:04:44;;;;;;;2.83;2.50;;;16.90;57.80;18.00;100353.00;;;;5008330;28;20174;-43
2023/03/19 03:07:10;;;;;;;3.20;2.60;;;16.90;57.90;18.00;100355.00;;;;5008120;28;20193;-43
2023/03/19 03:09:36;;;;;;;2.90;2.60;;;16.80;57.80;18.00;100348.00;;;;5009162;28;20209;-43
2023/03/19 03:12:01;;;;;;;3.30;2.80;;;16.80;57.80;17.90;100346.00;;;;5011912;28;20200;-43
2023/03/19 03:14:27;;;;;;;3.50;2.87;;;16.80;57.80;18.00;100360.00;;;;5010715;28;20276;-43
2023/03/19 03:16:53;;;;;;;3.47;2.60;;;16.80;57.90;17.90;100351.00;;;;5012030;28;20211;-43
2023/03/19 03:19:19;;;;;;;3.30;2.80;;;16.80;57.90;17.90;100359.00;;;;5011926;28;20203;-44
2023/03/19 03:21:45;;;;;;;3.50;2.60;;;16.80;57.90;17.90;100347.00;;;;5012039;28;20170;-43
2023/03/19 03:24:11;;;;;;;3.67;2.47;;;16.80;57.90;17.90;100346.00;;;;5011744;28;20284;-42
2023/03/19 03:26:40;;;;;;;2.80;2.50;;;16.80;57.90;17.90;100348.00;;;;5011888;28;20231;-43
2023/03/19 03:29:06;;;;;;;3.30;2.70;;;16.80;58.00;17.90;100353.00;;;;5011956;28;20207;-43
2023/03/19 03:31:32;;;;;;;3.23;2.70;;;16.70;57.80;17.90;100357.00;;;;5011781;28;20528;-43
2023/03/19 03:33:57;;;;;;;3.93;2.50;;;16.70;57.80;17.90;100370.00;;;;5011802;28;20193;-43
2023/03/19 03:36:23;;;;;;;3.00;2.70;;;16.80;58.00;17.80;100365.00;;;;5011554;28;20216;-43
2023/03/19 03:38:49;;;;;;;4.20;2.80;;;16.70;57.80;17.80;100368.00;;;;5011521;28;20205;-44
2023/03/19 03:41:15;;;;;;;3.13;2.43;;;16.70;57.80;17.80;100374.00;;;;5011619;28;20284;-44
2023/03/19 03:43:41;;;;;;;3.40;2.57;;;16.70;57.80;17.80;100374.00;;;;5011287;28;20270;-44
2023/03/19 03:46:07;;;;;;;2.90;2.40;;;16.70;57.80;17.80;100369.00;;;;5011420;28;20202;-44
2023/03/19 03:48:34;;;;;;;3.87;2.50;;;16.70;57.90;17.80;100366.00;;;;5010190;28;20686;-43
2023/03/19 03:50:59;;;;;;;3.03;2.50;;;16.70;57.90;17.80;100371.00;;;;5011487;28;20233;-43
2023/03/19 03:53:25;;;;;;;3.83;2.60;;;16.70;57.90;17.80;100380.00;;;;5011074;28;20294;-42
2023/03/19 03:55:51;;;;;;;3.37;2.60;;;16.70;57.90;17.80;100379.00;;;;5011238;28;20214;-43
2023/03/19 03:58:17;;;;;;;2.93;2.60;;;16.70;57.90;17.80;100374.00;;;;5010916;28;20179;-43
2023/03/19 04:00:42;;;;;;;3.40;2.60;;;16.60;57.80;17.70;100381.00;;;;5011098;28;20178;-43
2023/03/19 04:03:09;;;;;;;3.07;2.50;;;16.60;57.80;17.70;100376.00;;;;5010982;28;20187;-43
2023/03/19 04:05:35;;;;;;;2.77;2.40;;;16.60;57.80;17.70;100376.00;;;;5009890;28;20322;-43
2023/03/19 04:08:02;;;;;;;3.37;2.60;;;16.60;57.80;17.70;100374.00;;;;5011006;28;20182;-43
2023/03/19 04:10:28;;;;;;;2.87;2.33;;;16.60;57.80;17.70;100375.00;;;;5009765;28;20242;-42
2023/03/19 04:12:54;;;;;;;2.83;2.50;;;16.60;57.90;17.70;100379.00;;;;5010783;28;20791;-45
2023/03/19 04:15:20;;;;;;;3.77;2.70;;;16.60;58.00;17.70;100382.00;;;;5013749;28;20256;-43
2023/03/19 04:17:46;;;;;;;3.60;2.50;;;16.50;57.90;17.70;100394.00;;;;5015839;28;20835;-43
2023/03/19 04:20:12;;;;;;;2.60;2.40;;;16.50;57.80;17.60;100376.00;;;;5014876;28;20233;-43
2023/03/19 04:22:38;;;;;;;3.80;2.50;;;16.50;57.90;17.60;100384.00;;;;5011940;28;20185;-43
2023/03/19 04:25:07;;;;;;;3.17;2.30;;;16.50;57.80;17.60;100380.00;;;;5011074;28;20663;-44
2023/03/19 04:27:33;;;;;;;2.97;2.53;;;16.50;57.80;17.60;100380.00;;;;5011060;28;20628;-43
2023/03/19 04:29:58;;;;;;;2.43;2.23;;;16.60;57.80;17.60;100388.00;;;;5010737;28;20203;-43
2023/03/19 04:32:24;;;;;;;2.87;2.50;;;16.50;57.80;17.60;100390.00;;;;5010317;28;20235;-44
2023/03/19 04:34:50;;;;;;;2.53;2.33;;;16.40;57.80;17.60;100385.00;;;;5010623;28;20698;-43
2023/03/19 04:37:16;;;;;;;3.63;2.40;;;16.50;58.40;17.60;100383.00;;;;5003907;28;20779;-43
2023/03/19 04:39:43;;;;;;;2.67;2.40;;;16.50;58.10;17.70;100387.00;;;;5009459;28;20277;-43
2023/03/19 04:42:10;;;;;;;3.07;2.30;;;16.60;58.00;17.70;100389.00;;;;5009129;28;20184;-43
2023/03/19 04:44:36;;;;;;;2.93;2.40;;;16.60;57.90;17.70;100385.00;;;;5009675;28;20181;-43
2023/03/19 04:47:03;;;;;;;4.10;2.50;;;16.60;58.00;17.50;100392.00;;;;5009847;28;20229;-43
2023/03/19 04:49:29;;;;;;;4.10;2.57;;;16.70;58.00;17.70;100400.00;;;;5009899;28;20878;-43
2023/03/19 04:51:56;;;;;;;3.33;2.47;;;16.70;58.00;17.70;100399.00;;;;5008978;28;20268;-43
2023/03/19 04:54:23;;;;;;;3.30;2.40;;;16.60;57.90;17.70;100401.00;;;;5008663;28;20199;-43
2023/03/19 04:56:49;;;;;;;2.60;2.30;;;16.60;58.00;17.70;100403.00;;;;5009658;28;20220;-43
2023/03/19 04:59:15;;;;;;;2.70;2.30;;;16.60;58.10;17.70;100407.00;;;;5008481;28;20277;-43
2023/03/19 05:01:40;;;;;;;2.50;2.30;;;16.50;58.00;17.60;100410.00;;;;5008932;28;20495;-44
2023/03/19 05:04:07;;;;;;;3.73;2.33;;;16.50;58.10;17.60;100410.00;;;;5009554;28;20175;-43
2023/03/19 05:06:32;;;;;;;2.77;2.30;;;16.50;58.10;17.60;100412.00;;;;5009299;28;20271;-42
2023/03/19 05:08:58;;;;;;;2.70;2.50;;;16.40;58.00;17.60;100417.00;;;;5005325;28;20288;-44
2023/03/19 05:11:24;;;;;;;3.53;2.60;;;16.40;58.10;17.50;100419.00;;;;5007144;28;20259;-43
2023/03/19 05:13:50;;;;;;;4.60;2.43;;;16.40;58.00;17.50;100412.00;;;;5007331;28;20178;-43
2023/03/19 05:16:16;;;;;;;3.73;2.57;;;16.40;58.00;17.50;100421.00;;;;5007501;28;20204;-43
2023/03/19 05:18:42;;;;;;;3.10;2.50;;;16.40;57.90;17.50;100412.00;;;;5005612;28;20207;-44
2023/03/19 05:21:10;;;;;;;3.37;2.50;;;16.40;58.00;17.50;100410.00;;;;5008653;28;20806;-43
2023/03/19 05:23:36;;;;;;;2.83;2.50;;;16.40;58.00;17.50;100420.00;;;;5008601;28;20677;-43
2023/03/19 05:26:02;;;;;;;2.87;2.40;;;16.40;58.00;17.50;100417.00;;;;5009315;28;20250;-43
2023/03/19 05:28:28;;;;;;;4.17;2.30;;;16.50;58.10;17.50;100416.00;;;;5008970;28;20198;-43
2023/03/19 05:30:54;;;;;;;3.23;2.30;;;16.50;58.10;17.60;100419.00;;;;5008730;28;20176;-43
2023/03/19 05:33:21;;;;;;;2.50;2.20;;;16.50;58.10;17.60;100423.00;;;;5008764;28;20248;-43
2023/03/19 05:35:47;;;;;;;3.37;2.10;;;16.50;58.10;17.60;100422.00;;;;5009589;28;20201;-43
2023/03/19 05:38:13;;;;;;;2.90;2.27;;;16.50;58.20;17.60;100422.00;;;;5007558;28;20184;-43
2023/03/19 05:40:40;;;;;;;3.23;2.30;;;16.50;58.20;17.60;100431.00;;;;5008406;28;20177;-44
2023/03/19 05:43:08;;;;;;;3.33;2.47;;;16.50;58.20;17.60;100423.00;;;;5008258;28;20772;-43
2023/03/19 05:45:34;;;;;;;9.60;3.03;;;16.50;58.20;17.60;100429.00;;;;5007341;28;20173;-43
2023/03/19 05:48:01;;;;;;;12.10;3.33;;;16.60;58.40;17.60;100433.00;;;;5009770;28;20269;-43
2023/03/19 05:50:27;;;;;;;12.23;3.67;;;16.60;58.50;17.70;100443.00;;;;5009240;28;20197;-43
2023/03/19 05:52:53;;;;;;;10.13;3.33;;;16.60;58.50;17.70;100441.00;;;;5014378;28;20196;-43
2023/03/19 05:55:19;;;;;;;11.13;3.57;;;16.50;58.40;17.70;100435.00;;;;5013635;28;20214;-43
2023/03/19 05:57:44;;;;;;;14.80;3.50;;;16.50;58.60;17.70;100441.00;;;;5009969;28;20190;-43
2023/03/19 06:00:11;;;;;;;11.70;3.17;;;16.60;58.70;17.70;100441.00;;;;5006886;28;20200;-42
2023/03/19 06:02:37;;;;;;;9.27;3.00;;;16.60;58.90;17.70;100447.00;;;;5009103;28;20664;-43
2023/03/19 06:05:05;;;;;;;10.43;3.00;;;16.50;58.80;17.70;100440.00;;;;5009576;28;20188;-43
2023/03/19 06:07:31;;;;;;;7.97;2.93;;;16.60;58.90;17.70;100444.00;;;;5008300;28;20660;-44
2023/03/19 06:09:57;;;;;;;7.40;2.93;;;16.50;58.80;17.70;100449.00;;;;5009504;28;20195;-41
2023/03/19 06:12:23;;;;;;;8.60;3.20;;;16.60;58.90;17.70;100461.00;;;;5009060;28;20719;-43
2023/03/19 06:14:49;;;;;;;6.70;2.83;;;16.50;58.90;17.70;100456.00;;;;5004357;28;20212;-44
2023/03/19 06:17:15;;;;;;;5.70;2.93;;;16.60;59.00;17.70;100462.00;;;;5009374;28;20239;-43
2023/03/19 06:19:40;;;;;;;9.13;2.97;;;16.60;59.00;17.70;100467.00;;;;5009350;28;20221;-43
2023/03/19 06:22:06;;;;;;;8.33;3.00;;;16.60;59.00;17.70;100468.00;;;;5008271;28;20634;-43
2023/03/19 06:24:32;;;;;;;7.57;2.80;;;16.50;59.00;17.70;100470.00;;;;5007737;28;20738;-44
2023/03/19 06:26:58;;;;;;;3.87;2.63;;;16.60;59.00;17.70;100474.00;;;;5009237;28;20202;-43
2023/03/19 06:29:24;;;;;;;7.33;2.83;;;16.50;58.90;17.60;100476.00;;;;5009097;28;20518;-44
2023/03/19 06:31:51;;;;;;;7.97;2.80;;;16.60;59.10;17.70;100465.00;;;;5008077;28;20187;-44
2023/03/19 06:34:17;;;;;;;6.87;2.93;;;16.50;58.90;17.60;100472.00;;;;5009239;28;20612;-44
2023/03/19 06:36:42;;;;;;;7.70;3.00;;;16.50;58.90;17.60;100469.00;;;;5008642;28;20191;-44
2023/03/19 06:39:09;;;;;;;3.97;2.60;;;16.50;59.00;17.60;100475.00;;;;5008924;28;20279;-44
2023/03/19 06:41:34;;;;;;;6.97;2.60;;;16.50;59.10;17.60;100476.00;;;;5008430;28;20789;-43
2023/03/19 06:44:01;;;;;;;4.13;2.60;;;16.50;59.00;17.60;100470.00;;;;5011307;28;20170;-44
2023/03/19 06:46:26;;;;;;;3.20;2.33;;;16.50;59.00;17.60;100469.00;;;;5013059;28;20200;-44
2023/03/19 06:48:53;;;;;;;3.43;2.57;;;16.50;59.10;17.60;100487.00;;;;5012213;28;20293;-44
2023/03/19 06:51:18;;;;;;;6.53;2.53;;;16.50;59.10;17.60;100481.00;;;;5012459;28;20805;-44
2023/03/19 06:53:44;;;;;;;5.03;2.40;;;16.50;59.10;17.60;100481.00;;;;5012660;28;20260;-44
2023/03/19 06:56:10;;;;;;;4.40;2.47;;;16.50;59.10;17.60;100473.00;;;;5013320;28;20302;-44
2023/03/19 06:58:35;;;;;;;5.53;2.47;;;16.50;59.10;17.60;100473.00;;;;5011460;28;20192;-45
2023/03/19 07:01:01;;;;;;;3.70;2.30;;;16.50;59.10;17.60;100479.00;;;;5011112;28;20168;-44
2023/03/19 07:03:27;;;;;;;3.10;2.30;;;16.50;59.10;17.60;100484.00;;;;5012239;28;20226;-45
2023/03/19 07:05:53;;;;;;;3.27;2.43;;;16.50;59.50;17.60;100493.00;;;;5012444;28;20183;-43
2023/03/19 07:08:19;;;;;;;5.90;2.40;;;16.50;59.20;17.60;100494.00;;;;5011322;28;20189;-43
2023/03/19 07:10:44;;;;;;;3.00;2.23;;;16.50;59.20;17.60;100495.00;;;;5012312;28;20177;-45
2023/03/19 07:13:10;;;;;;;3.83;2.10;;;16.50;59.20;17.60;100481.00;;;;5010975;28;20181;-45
2023/03/19 07:15:36;;;;;;;3.57;2.33;;;16.50;59.20;17.60;100498.00;;;;5012823;28;20238;-45
2023/03/19 07:18:02;;;;;;;3.77;2.27;;;16.50;59.20;17.60;100492.00;;;;5012751;28;20177;-43
2023/03/19 07:20:28;;;;;;;2.47;2.20;;;16.50;59.20;17.60;100505.00;;;;5012170;28;20204;-44
2023/03/19 07:22:54;;;;;;;3.07;2.27;;;16.50;59.20;17.60;100510.00;;;;5011652;28;20173;-43
2023/03/19 07:25:20;;;;;;;3.23;2.00;;;16.50;59.20;17.60;100509.00;;;;5011169;28;20191;-43
2023/03/19 07:27:45;;;;;;;3.17;2.20;;;16.40;59.20;17.60;100504.00;;;;5012265;28;20175;-43
2023/03/19 07:30:12;;;;;;;3.03;2.30;;;16.50;59.20;17.60;100521.00;;;;5012045;28;20304;-44
2023/03/19 07:32:38;;;;;;;3.17;2.17;;;16.50;59.20;17.60;100523.00;;;;5011151;28;20173;-42
2023/03/19 07:35:08;;;;;;;3.40;2.20;;;16.50;59.20;17.60;100512.00;;;;5012120;28;20182;-43
2023/03/19 07:37:34;;;;;;;2.73;2.13;;;16.50;59.20;17.60;100523.00;;;;5010926;28;20819;-43
2023/03/19 07:39:59;;;;;;;2.57;2.00;;;16.50;59.20;17.60;100524.00;;;;5011902;28;20284;-44
2023/03/19 07:42:25;;;;;;;2.10;1.90;;;16.40;59.20;17.60;100537.00;;;;5011520;28;20174;-44
2023/03/19 07:44:51;;;;;;;2.63;1.90;;;16.50;59.20;17.60;100522.00;;;;5012101;28;20184;-43
2023/03/19 07:47:17;;;;;;;3.23;1.93;;;16.50;59.20;17.50;100524.00;;;;5012073;28;20723;-43
2023/03/19 07:49:42;;;;;;;3.03;2.00;;;16.40;59.20;17.50;100527.00;;;;5011725;28;20572;-43
2023/03/19 07:52:08;;;;;;;2.43;2.07;;;16.40;59.20;17.60;100531.00;;;;5010974;28;20554;-43
2023/03/19 07:54:34;;;;;;;4.10;2.10;;;16.40;59.20;17.50;100534.00;;;;5011612;28;20259;-43
2023/03/19 07:57:00;;;;;;;2.80;2.20;;;16.40;59.30;17.50;100532.00;;;;5011510;28;20283;-43
2023/03/19 07:59:26;;;;;;;2.97;2.03;;;16.40;59.20;17.50;100538.00;;;;5009402;28;20628;-43
2023/03/19 08:01:51;;;;;;;2.83;2.20;;;16.40;59.20;17.50;100530.00;;;;5009548;28;20227;-43
2023/03/19 08:04:17;;;;;;;2.10;1.90;;;16.40;59.20;17.50;100534.00;;;;5011569;28;20190;-43
2023/03/19 08:06:43;;;;;;;2.07;1.87;;;16.40;59.20;17.50;100530.00;;;;5010635;28;20224;-43
2023/03/19 08:09:09;;;;;;;3.23;2.17;;;16.40;59.20;17.50;100534.00;;;;5010626;28;20279;-44
2023/03/19 08:11:35;;;;;;;2.10;1.90;;;16.40;59.20;17.50;100526.00;;;;5011822;28;20745;-42
2023/03/19 08:14:01;;;;;;;2.77;2.03;;;16.40;59.20;17.50;100534.00;;;;5008590;28;20190;-42
2023/03/19 08:16:27;;;;;;;2.20;1.97;;;16.40;59.30;17.50;100533.00;;;;5011801;28;20282;-43
2023/03/19 08:18:53;;;;;;;2.43;1.80;;;16.40;59.30;17.50;100531.00;;;;5011399;28;20615;-42
2023/03/19 08:21:18;;;;;;;2.83;2.10;;;16.40;59.30;17.50;100526.00;;;;5003185;28;20251;-43
2023/03/19 08:23:44;;;;;;;2.97;1.93;;;16.40;60.20;17.50;100533.00;;;;5013124;28;20211;-43
2023/03/19 08:26:10;;;;;;;1.93;1.80;;;16.40;59.50;17.50;100538.00;;;;5018013;28;20251;-42
2023/03/19 08:28:37;;;;;;;2.63;1.80;;;16.40;59.50;17.50;100545.00;;;;5014086;28;20208;-43
2023/03/19 08:31:10;;;;;;;2.93;1.90;;;16.40;59.50;17.50;100543.00;;;;5013114;28;20177;-43
2023/03/19 08:33:36;;;;;;;1.80;1.70;;;16.40;59.60;17.50;100552.00;;;;5000507;28;20184;-43
2023/03/19 08:36:11;;;;;;;3.80;2.00;;;16.50;59.80;17.50;100546.00;;;;5011157;28;20208;-44
2023/03/19 08:38:37;;;;;;;4.60;2.03;;;16.50;60.10;17.50;100553.00;;;;5011424;28;20191;-43
2023/03/19 08:41:03;;;;;;;2.10;1.90;;;16.50;60.20;17.50;100557.00;;;;5011167;28;20187;-43
2023/03/19 08:43:30;;;;;;;6.10;2.20;;;16.50;60.30;17.50;100551.00;;;;5010668;28;20179;-43
2023/03/19 08:45:56;;;;;;;4.57;2.13;;;16.60;60.40;17.60;100554.00;;;;5010676;28;20176;-43
2023/03/19 08:48:22;;;;;;;5.93;2.10;;;16.70;60.50;17.60;100556.00;;;;5012385;28;20177;-44
2023/03/19 08:51:00;;;;;;;4.37;1.80;;;16.70;60.50;17.60;100562.00;;;;5010301;28;20177;-43
2023/03/19 08:53:26;;;;;;;1.90;1.80;;;16.80;60.60;17.70;100554.00;;;;5010556;28;20263;-43
2023/03/19 08:55:57;;;;;;;2.10;1.90;;;16.90;60.70;17.70;100559.00;;;;5011209;28;20686;-43
2023/03/19 08:58:23;;;;;;;2.30;1.70;;;16.90;60.70;17.80;100551.00;;;;5010948;28;20183;-44
2023/03/19 09:00:49;;;;;;;3.60;2.10;;;17.00;60.80;17.90;100554.00;;;;5011140;28;20951;-43
2023/03/19 09:03:15;;;;;;;1.97;1.70;;;17.10;60.80;18.00;100547.00;;;;5010842;28;20179;-43
2023/03/19 09:05:41;;;;;;;2.63;1.90;;;17.20;60.90;18.10;100552.00;;;;5010933;28;20194;-43
2023/03/19 09:08:07;;;;;;;2.50;1.70;;;17.30;60.80;18.20;100554.00;;;;5008391;28;20254;-43
2023/03/19 09:10:32;;;;;;;3.60;1.90;;;17.50;61.10;18.20;100557.00;;;;5008070;28;20219;-43
2023/03/19 09:12:58;;;;;;;3.47;1.83;;;17.60;61.10;18.30;100554.00;;;;5006139;28;20710;-43
2023/03/19 09:15:24;;;;;;;2.60;1.70;;;17.70;61.50;18.40;100559.00;;;;5009592;28;20269;-43
2023/03/19 09:17:50;;;;;;;3.50;1.80;;;17.80;61.70;18.50;100560.00;;;;5009152;28;20175;-44
2023/03/19 09:20:16;;;;;;;2.37;1.60;;;17.90;61.70;18.60;100558.00;;;;5009773;28;20194;-43
2023/03/19 09:22:42;;;;;;;5.53;1.93;;;17.90;61.80;18.70;100563.00;;;;5009086;28;20231;-43
2023/03/19 09:25:08;;;;;;;4.07;1.80;;;18.00;61.80;18.80;100571.00;;;;5010073;28;20189;-44
2023/03/19 09:27:34;;;;;;;2.83;1.60;;;18.00;61.90;18.80;100570.00;;;;5010595;28;20188;-44
2023/03/19 09:30:00;;;;;;;5.33;2.00;;;18.10;62.00;18.90;100567.00;;;;5010310;28;20673;-43
2023/03/19 09:32:25;;;;;;;4.47;1.97;;;18.10;62.20;18.90;100562.00;;;;5010176;28;20199;-43
2023/03/19 09:34:51;;;;;;;2.93;1.80;;;18.10;62.10;18.90;100562.00;;;;5010557;28;20176;-43
2023/03/19 09:37:17;;;;;;;2.50;1.70;;;18.20;62.30;19.00;100566.00;;;;5010257;28;20210;-43
2023/03/19 09:39:43;;;;;;;4.33;2.00;;;18.20;62.10;19.00;100560.00;;;;5010198;28;20188;-43
2023/03/19 09:42:44;;;;;;;4.00;1.77;;;18.30;63.10;19.00;100566.00;;;;5009770;28;20175;-43
2023/03/19 09:45:15;;;;;;;2.37;1.90;;;18.30;62.20;19.10;100560.00;;;;5009316;28;20673;-43
2023/03/19 09:47:42;;;;;;;3.53;1.87;;;18.30;62.30;19.10;100501.00;;;;5009150;28;20258;-43
2023/03/19 09:50:19;;;;;;;2.53;1.63;;;18.30;62.30;19.10;100569.00;;;;5010143;28;20294;-44
2023/03/19 09:52:50;;;;;;;2.27;1.60;;;18.30;62.30;19.10;100566.00;;;;5009371;28;20179;-44
2023/03/19 09:55:43;;;;;;;1.93;1.53;;;18.40;62.30;19.20;100571.00;;;;5008905;28;20176;-43
2023/03/19 09:58:18;;;;;;;2.73;1.67;;;18.40;62.40;19.20;100579.00;;;;5010098;28;20670;-44
2023/03/19 10:00:49;;;;;;;2.10;1.50;;;18.40;62.40;19.20;100561.00;;;;5010210;28;20171;-43
2023/03/19 10:04:03;;;;;;;3.67;1.70;;;18.40;62.40;19.20;100576.00;;;;5009007;28;20211;-43
2023/03/19 10:06:35;;;;;;;1.60;1.50;;;18.40;62.50;19.20;100579.00;;;;5010563;28;20820;-44
2023/03/19 10:09:41;;;;;;;3.07;1.57;;;18.40;62.50;19.20;100570.00;;;;5009842;28;20618;-43
2023/03/19 10:12:34;;;;;;;2.87;1.70;;;18.40;62.50;19.20;100570.00;;;;5005421;28;20270;-43
2023/03/19 10:15:19;;;;;;;1.30;1.20;;;18.40;62.50;19.00;100581.00;;;;5003531;28;20210;-43
2023/03/19 10:17:57;;;;;;;1.63;1.37;;;18.40;62.40;19.20;100583.00;;;;5001554;28;20588;-43
2023/03/19 10:20:45;;;;;;;1.70;1.60;;;18.40;62.30;19.20;100589.00;;;;4990497;28;20206;-43
2023/03/19 10:23:37;;;;;;;1.50;1.40;;;18.40;62.30;19.20;100574.00;;;;5008088;28;20183;-43
2023/03/19 10:26:05;;;;;;;1.60;1.50;;;18.40;62.30;19.20;100582.00;;;;5009164;28;20179;-43
2023/03/19 10:28:30;;;;;;;1.57;1.47;;;18.40;63.10;19.20;100590.00;;;;5000711;28;20278;-43
2023/03/19 10:31:25;;;;;;;1.53;1.43;;;18.40;62.20;19.20;100595.00;;;;5009420;28;20302;-43
2023/03/19 10:33:57;;;;;;;1.73;1.53;;;18.40;62.10;19.20;100590.00;;;;5010078;28;20183;-43
2023/03/19 10:36:26;;;;;;;4.50;1.53;;;18.40;62.10;19.20;100581.00;;;;5008274;28;20265;-43
2023/03/19 10:38:52;;;;;;;5.73;1.50;;;18.40;62.30;19.30;100593.00;;;;5006145;28;20195;-43
2023/03/19 10:41:52;;;;;;;1.40;1.30;;;18.40;63.50;19.30;100589.00;;;;5011232;28;20194;-44
2023/03/19 10:44:35;;;;;;;1.93;1.40;;;18.40;62.40;19.30;100593.00;;;;5010377;28;20291;-44
2023/03/19 10:47:13;;;;;;;2.07;1.53;;;18.40;62.50;19.30;100593.00;;;;5010210;28;20172;-44
2023/03/19 10:49:38;;;;;;;1.43;1.33;;;18.40;62.50;19.30;100598.00;;;;5011655;28;20288;-44